createdAt,value
2019-05-25T00:00:01.733Z,55.90
2019-05-25T00:02:33.479Z,56.30
2019-05-25T00:05:03.282Z,56.20
2019-05-25T00:07:33.043Z,56.10
2019-05-25T00:10:02.919Z,56.20
2019-05-25T00:12:33.520Z,56.20
2019-05-25T00:15:03.194Z,56.10
2019-05-25T00:17:32.771Z,56.30
2019-05-25T00:20:02.331Z,56.30
2019-05-25T00:22:32.196Z,56.10
2019-05-25T00:25:04.212Z,55.90
2019-05-25T00:27:34.246Z,56.00
2019-05-25T00:30:04.388Z,55.80
2019-05-25T00:32:36.022Z,56.00
2019-05-25T00:35:06.227Z,55.90
2019-05-25T00:37:36.834Z,55.90
2019-05-25T00:40:07.020Z,55.70
2019-05-25T00:42:36.957Z,55.40
2019-05-25T00:45:06.558Z,55.20
2019-05-25T00:47:36.204Z,55.60
2019-05-25T00:50:06.387Z,55.60
2019-05-25T00:52:35.928Z,55.60
2019-05-25T00:55:05.975Z,55.60
2019-05-25T00:57:35.602Z,55.90
2019-05-25T01:00:06.439Z,56.00
2019-05-25T01:02:39.214Z,56.50
2019-05-25T01:05:08.895Z,56.70
2019-05-25T01:07:38.506Z,56.90
2019-05-25T01:10:08.159Z,57.20
2019-05-25T01:12:37.791Z,57.20
2019-05-25T01:15:08.503Z,57.40
2019-05-25T01:17:38.111Z,57.40
2019-05-25T01:20:07.816Z,57.40
2019-05-25T01:22:37.348Z,58.20
2019-05-25T01:25:07.036Z,57.70
2019-05-25T01:27:36.956Z,57.90
2019-05-25T01:30:08.204Z,58.00
2019-05-25T01:32:47.997Z,58.10
2019-05-25T01:35:17.658Z,58.00
2019-05-25T01:37:53.294Z,57.90
2019-05-25T01:40:23.786Z,58.20
2019-05-25T01:42:53.630Z,58.10
2019-05-25T01:45:23.454Z,58.00
2019-05-25T01:47:53.116Z,58.20
2019-05-25T01:50:22.763Z,58.40
2019-05-25T01:52:52.320Z,58.60
2019-05-25T01:55:21.896Z,58.30
2019-05-25T01:57:51.460Z,58.20
2019-05-25T02:00:21.326Z,58.20
2019-05-25T02:02:51.101Z,58.30
2019-05-25T02:05:20.957Z,58.30
2019-05-25T02:07:50.842Z,58.50
2019-05-25T02:10:20.867Z,58.40
2019-05-25T02:12:50.750Z,58.50
2019-05-25T02:15:20.683Z,58.80
2019-05-25T02:17:50.497Z,59.00
2019-05-25T02:20:20.102Z,59.10
2019-05-25T02:22:49.736Z,59.40
2019-05-25T02:25:19.419Z,59.70
2019-05-25T02:27:49.018Z,60.60
2019-05-25T02:30:18.708Z,61.40
2019-05-25T02:32:48.396Z,61.60
2019-05-25T02:35:25.567Z,61.90
2019-05-25T02:37:55.701Z,61.90
2019-05-25T02:40:25.584Z,62.10
2019-05-25T02:42:55.483Z,62.40
2019-05-25T02:45:25.366Z,62.90
2019-05-25T02:47:55.248Z,63.20
2019-05-25T02:50:25.305Z,64.00
2019-05-25T02:52:55.119Z,63.00
2019-05-25T02:55:33.598Z,63.40
2019-05-25T02:57:56.579Z,63.60
2019-05-25T03:00:32.251Z,64.10
2019-05-25T03:03:02.492Z,64.30
2019-05-25T03:05:32.603Z,64.50
2019-05-25T03:08:02.713Z,65.10
2019-05-25T03:10:32.731Z,65.60
2019-05-25T03:13:02.977Z,66.10
2019-05-25T03:15:33.858Z,66.50
2019-05-25T03:18:03.859Z,67.00
2019-05-25T03:20:33.681Z,67.40
2019-05-25T03:23:03.592Z,67.20
2019-05-25T03:25:46.790Z,67.40
2019-05-25T03:28:05.391Z,67.60
2019-05-25T03:30:35.702Z,67.50
2019-05-25T03:33:05.577Z,67.70
2019-05-25T03:35:35.506Z,67.40
2019-05-25T03:38:05.341Z,67.00
2019-05-25T03:40:35.285Z,67.10
2019-05-25T03:43:05.013Z,67.30
2019-05-25T03:45:34.928Z,67.10
2019-05-25T03:48:04.960Z,67.30
2019-05-25T03:50:34.874Z,67.30
2019-05-25T03:53:04.847Z,67.30
2019-05-25T03:55:34.678Z,68.00
2019-05-25T03:58:04.357Z,68.40
2019-05-25T04:00:35.543Z,68.90
2019-05-25T04:03:05.965Z,68.60
2019-05-25T04:05:35.819Z,68.40
2019-05-25T04:08:05.709Z,68.30
2019-05-25T04:10:38.627Z,68.30
2019-05-25T04:13:07.251Z,68.40
2019-05-25T04:15:37.116Z,68.20
2019-05-25T04:18:09.948Z,67.70
2019-05-25T04:20:39.872Z,67.90
2019-05-25T04:23:09.894Z,67.90
2019-05-25T04:25:39.800Z,68.00
2019-05-25T04:28:09.713Z,67.50
2019-05-25T04:30:39.706Z,68.00
2019-05-25T04:33:09.759Z,67.10
2019-05-25T04:35:39.658Z,67.00
2019-05-25T04:38:09.543Z,66.80
2019-05-25T04:40:39.386Z,66.80
2019-05-25T04:43:09.396Z,66.80
2019-05-25T04:45:39.508Z,66.60
2019-05-25T04:48:09.366Z,66.60
2019-05-25T04:50:39.360Z,66.80
2019-05-25T04:53:09.270Z,66.80
2019-05-25T04:55:39.092Z,66.50
2019-05-25T04:58:09.011Z,66.40
2019-05-25T05:00:39.132Z,66.30
2019-05-25T05:03:08.934Z,66.10
2019-05-25T05:05:38.841Z,66.30
2019-05-25T05:08:08.658Z,66.20
2019-05-25T05:10:38.473Z,66.10
2019-05-25T05:13:08.464Z,65.80
2019-05-25T05:15:38.400Z,65.50
2019-05-25T05:18:08.416Z,65.20
2019-05-25T05:20:38.382Z,65.20
2019-05-25T05:23:08.267Z,65.50
2019-05-25T05:25:38.446Z,65.60
2019-05-25T05:28:08.789Z,64.40
2019-05-25T05:30:38.799Z,64.30
2019-05-25T05:33:08.701Z,64.40
2019-05-25T05:35:39.162Z,64.50
2019-05-25T05:38:09.354Z,64.60
2019-05-25T05:40:39.330Z,64.20
2019-05-25T05:43:12.283Z,63.90
2019-05-25T05:45:43.270Z,63.50
2019-05-25T05:48:13.743Z,63.40
2019-05-25T05:50:43.552Z,62.90
2019-05-25T05:53:13.571Z,62.40
2019-05-25T05:55:44.483Z,61.80
2019-05-25T05:58:13.680Z,61.50
2019-05-25T06:00:43.534Z,61.30
2019-05-25T06:03:14.864Z,61.20
2019-05-25T06:05:45.806Z,61.10
2019-05-25T06:08:16.941Z,60.90
2019-05-25T06:10:46.847Z,60.60
2019-05-25T06:13:16.797Z,60.40
2019-05-25T06:15:47.267Z,60.30
2019-05-25T06:18:18.485Z,60.30
2019-05-25T06:20:48.735Z,60.30
2019-05-25T06:23:19.082Z,60.00
2019-05-25T06:25:49.256Z,59.80
2019-05-25T06:28:22.412Z,59.30
2019-05-25T06:30:51.728Z,59.00
2019-05-25T06:33:22.055Z,58.80
2019-05-25T06:35:52.177Z,58.70
2019-05-25T06:38:22.887Z,58.80
2019-05-25T06:40:52.806Z,59.10
2019-05-25T06:43:22.612Z,59.40
2019-05-25T06:45:52.435Z,60.00
2019-05-25T06:48:22.240Z,59.30
2019-05-25T06:50:52.044Z,59.00
2019-05-25T06:53:21.966Z,57.30
2019-05-25T06:55:51.925Z,57.30
2019-05-25T06:58:21.903Z,56.40
2019-05-25T07:00:51.604Z,56.10
2019-05-25T07:03:21.537Z,55.90
2019-05-25T07:05:51.230Z,55.50
2019-05-25T07:08:21.016Z,55.10
2019-05-25T07:10:50.952Z,55.30
2019-05-25T07:13:20.774Z,55.30
2019-05-25T07:15:50.620Z,55.40
2019-05-25T07:18:20.624Z,55.50
2019-05-25T07:20:50.631Z,54.60
2019-05-25T07:23:21.243Z,55.70
2019-05-25T07:25:51.646Z,54.80
2019-05-25T07:28:21.721Z,54.80
2019-05-25T07:30:51.612Z,54.90
2019-05-25T07:33:21.632Z,55.40
2019-05-25T07:35:51.642Z,55.10
2019-05-25T07:38:21.787Z,55.10
2019-05-25T07:40:51.662Z,55.30
2019-05-25T07:43:21.550Z,55.20
2019-05-25T07:45:52.427Z,54.70
2019-05-25T07:48:22.404Z,55.30
2019-05-25T07:50:52.638Z,54.70
2019-05-25T07:53:23.009Z,54.90
2019-05-25T07:55:53.430Z,54.80
2019-05-25T07:58:26.032Z,54.40
2019-05-25T08:00:56.500Z,54.50
2019-05-25T08:03:26.636Z,54.20
2019-05-25T08:05:56.460Z,53.60
2019-05-25T08:08:26.376Z,53.40
2019-05-25T08:10:56.144Z,52.30
2019-05-25T08:13:25.941Z,52.10
2019-05-25T08:15:58.891Z,51.80
2019-05-25T08:18:30.889Z,51.60
2019-05-25T08:21:00.901Z,51.70
2019-05-25T08:23:31.176Z,51.70
2019-05-25T08:26:01.465Z,50.40
2019-05-25T08:28:33.074Z,50.30
2019-05-25T08:31:02.964Z,50.30
2019-05-25T08:33:34.001Z,50.00
2019-05-25T08:36:04.312Z,49.80
2019-05-25T08:38:34.533Z,49.90
2019-05-25T08:41:04.886Z,49.90
2019-05-25T08:43:35.069Z,49.30
2019-05-25T08:46:05.243Z,49.70
2019-05-25T08:48:35.418Z,49.50
2019-05-25T08:51:05.668Z,49.50
2019-05-25T08:53:41.220Z,50.20
2019-05-25T08:56:11.224Z,50.20
2019-05-25T08:58:48.464Z,50.70
2019-05-25T09:01:17.010Z,50.90
2019-05-25T09:03:48.408Z,50.70
2019-05-25T09:06:18.699Z,49.90
2019-05-25T09:08:50.030Z,49.50
2019-05-25T09:11:19.985Z,49.50
2019-05-25T09:13:50.283Z,49.20
2019-05-25T09:16:20.290Z,48.80
2019-05-25T09:18:52.616Z,48.30
2019-05-25T09:21:24.866Z,48.80
2019-05-25T09:23:55.490Z,48.80
2019-05-25T09:26:25.483Z,48.40
2019-05-25T09:29:04.382Z,46.90
2019-05-25T09:31:31.530Z,46.30
2019-05-25T09:34:01.872Z,44.90
2019-05-25T09:36:32.218Z,42.10
2019-05-25T09:39:04.507Z,43.10
2019-05-25T09:41:35.791Z,43.60
2019-05-25T09:44:06.506Z,44.10
2019-05-25T09:46:37.156Z,44.40
2019-05-25T09:49:08.159Z,44.70
2019-05-25T09:51:38.347Z,44.20
2019-05-25T09:54:12.110Z,44.70
2019-05-25T09:56:42.202Z,45.20
2019-05-25T09:59:20.201Z,45.40
2019-05-25T10:01:45.795Z,45.80
2019-05-25T10:04:16.792Z,45.30
2019-05-25T10:06:46.717Z,45.60
2019-05-25T10:09:17.837Z,45.60
2019-05-25T10:11:48.075Z,46.30
2019-05-25T10:14:18.452Z,46.00
2019-05-25T10:16:49.414Z,43.80
2019-05-25T10:19:20.612Z,43.20
2019-05-25T10:21:50.469Z,43.30
2019-05-25T10:24:23.769Z,44.10
2019-05-25T10:26:54.093Z,45.40
2019-05-25T10:29:36.527Z,45.90
2019-05-25T10:31:56.430Z,46.70
2019-05-25T10:34:28.153Z,47.40
2019-05-25T10:37:08.603Z,47.50
2019-05-25T10:43:12.404Z,45.50
2019-05-25T10:45:42.328Z,44.80
2019-05-25T10:48:12.552Z,44.40
2019-05-25T10:50:42.493Z,44.70
2019-05-25T10:53:12.647Z,44.70
2019-05-25T10:55:42.641Z,44.60
2019-05-25T10:58:12.606Z,44.90
2019-05-25T11:00:42.527Z,45.60
2019-05-25T11:03:12.701Z,45.00
2019-05-25T11:05:42.531Z,45.50
2019-05-25T11:08:12.623Z,44.20
2019-05-25T11:10:42.463Z,44.10
2019-05-25T11:13:12.621Z,44.20
2019-05-25T11:15:42.706Z,43.70
2019-05-25T11:18:12.642Z,44.00
2019-05-25T11:20:42.248Z,42.00
2019-05-25T11:23:12.024Z,42.50
2019-05-25T11:25:42.050Z,43.00
2019-05-25T11:28:11.636Z,43.00
2019-05-25T11:30:41.613Z,41.90
2019-05-25T11:33:12.316Z,40.20
2019-05-25T11:35:44.079Z,39.80
2019-05-25T11:38:14.893Z,40.40
2019-05-25T11:40:45.162Z,41.50
2019-05-25T11:43:16.532Z,40.80
2019-05-25T11:45:48.218Z,40.70
2019-05-25T11:48:25.134Z,40.70
2019-05-25T11:50:56.906Z,40.70
2019-05-25T11:53:26.719Z,40.30
2019-05-25T11:55:59.410Z,40.60
2019-05-25T11:58:29.015Z,42.00
2019-05-25T12:00:58.763Z,43.30
2019-05-25T12:03:28.899Z,44.70
2019-05-25T12:05:58.970Z,45.90
2019-05-25T12:08:28.673Z,46.30
2019-05-25T12:10:59.206Z,44.80
2019-05-25T12:13:32.045Z,45.60
2019-05-25T12:16:00.860Z,46.60
2019-05-25T12:18:30.760Z,46.90
2019-05-25T12:21:00.889Z,46.50
2019-05-25T12:23:30.565Z,46.50
2019-05-25T12:26:02.460Z,46.80
2019-05-25T12:28:32.528Z,46.60
2019-05-25T12:31:02.355Z,47.50
2019-05-25T12:33:37.255Z,47.90
2019-05-25T12:36:07.546Z,47.20
2019-05-25T12:38:37.445Z,45.90
2019-05-25T12:41:07.219Z,46.60
2019-05-25T12:43:36.936Z,45.80
2019-05-25T12:46:06.732Z,44.60
2019-05-25T12:48:38.419Z,44.10
2019-05-25T12:51:08.141Z,44.10
2019-05-25T12:53:37.897Z,43.10
2019-05-25T12:56:07.643Z,42.80
2019-05-25T12:58:37.303Z,42.70
2019-05-25T13:01:06.842Z,42.50
2019-05-25T13:03:37.090Z,41.40
2019-05-25T13:06:06.825Z,41.40
2019-05-25T13:08:43.986Z,41.60
2019-05-25T13:11:13.994Z,41.50
2019-05-25T13:13:45.942Z,42.10
2019-05-25T13:16:17.932Z,41.90
2019-05-25T13:18:48.075Z,41.00
2019-05-25T13:21:17.995Z,41.50
2019-05-25T13:23:50.894Z,41.80
2019-05-25T13:26:22.992Z,42.60
2019-05-25T13:28:52.737Z,43.10
2019-05-25T13:31:23.344Z,43.60
2019-05-25T13:33:53.098Z,42.50
2019-05-25T13:36:22.859Z,43.30
2019-05-25T13:38:52.676Z,44.20
2019-05-25T13:41:22.642Z,44.80
2019-05-25T13:43:52.426Z,44.40
2019-05-25T13:46:22.133Z,44.40
2019-05-25T13:48:51.718Z,44.60
2019-05-25T13:51:21.786Z,42.60
2019-05-25T13:53:59.759Z,42.90
2019-05-25T13:56:29.367Z,43.20
2019-05-25T13:58:59.174Z,44.00
2019-05-25T14:01:29.302Z,42.00
2019-05-25T14:03:59.271Z,42.60
2019-05-25T14:06:35.437Z,43.00
2019-05-25T14:09:06.344Z,43.30
2019-05-25T14:11:36.437Z,44.10
2019-05-25T14:14:06.644Z,44.20
2019-05-25T14:16:36.432Z,43.90
2019-05-25T14:19:07.170Z,43.80
2019-05-25T14:21:38.344Z,43.90
2019-05-25T14:24:10.797Z,43.80
2019-05-25T14:26:40.802Z,44.30
2019-05-25T14:29:10.773Z,44.70
2019-05-25T14:31:45.944Z,44.70
2019-05-25T14:34:13.219Z,45.10
2019-05-25T14:36:44.109Z,45.30
2019-05-25T14:39:14.366Z,44.60
2019-05-25T14:41:44.355Z,44.90
2019-05-25T14:44:14.532Z,44.70
2019-05-25T14:46:49.482Z,44.40
2019-05-25T14:49:21.825Z,44.70
2019-05-25T14:51:52.289Z,45.50
2019-05-25T14:54:39.830Z,45.20
2019-05-25T14:57:10.031Z,44.70
2019-05-25T14:59:41.266Z,43.00
2019-05-25T15:02:11.571Z,42.30
2019-05-25T15:04:41.477Z,42.80
2019-05-25T15:07:11.777Z,42.90
2019-05-25T15:09:43.230Z,41.70
2019-05-25T15:12:14.390Z,39.50
2019-05-25T15:14:44.193Z,39.20
2019-05-25T15:17:14.429Z,39.20
2019-05-25T15:19:44.785Z,39.20
2019-05-25T15:22:15.259Z,39.40
2019-05-25T15:24:46.285Z,42.20
2019-05-25T15:27:16.212Z,44.40
2019-05-25T15:29:46.233Z,45.30
2019-05-25T15:32:20.501Z,45.80
2019-05-25T15:34:47.930Z,45.90
2019-05-25T15:37:17.861Z,45.70
2019-05-25T15:39:48.987Z,45.70
2019-05-25T15:42:19.031Z,46.50
2019-05-25T15:44:49.106Z,46.80
2019-05-25T15:47:21.396Z,47.60
2019-05-25T15:49:51.744Z,48.40
2019-05-25T15:52:21.512Z,48.10
2019-05-25T15:54:51.109Z,48.20
2019-05-25T15:57:21.735Z,48.60
2019-05-25T15:59:52.303Z,48.60
2019-05-25T16:02:35.594Z,47.70
2019-05-25T16:04:53.839Z,47.90
2019-05-25T16:07:23.921Z,47.20
2019-05-25T16:09:53.781Z,46.80
2019-05-25T16:12:23.935Z,47.20
2019-05-25T16:14:53.803Z,48.80
2019-05-25T16:17:26.142Z,49.80
2019-05-25T16:19:54.699Z,50.20
2019-05-25T16:22:24.385Z,51.10
2019-05-25T16:24:53.939Z,50.40
2019-05-25T16:27:23.528Z,50.50
2019-05-25T16:29:53.050Z,51.20
2019-05-25T16:32:22.809Z,50.80
2019-05-25T16:34:54.904Z,50.50
2019-05-25T16:37:26.223Z,50.60
2019-05-25T16:39:56.222Z,50.90
2019-05-25T16:42:28.371Z,51.30
2019-05-25T16:44:58.035Z,51.40
2019-05-25T16:47:28.291Z,51.70
2019-05-25T16:49:58.171Z,51.90
2019-05-25T16:52:28.129Z,51.90
2019-05-25T16:54:58.314Z,51.90
2019-05-25T16:57:32.588Z,51.90
2019-05-25T17:00:02.582Z,52.50
2019-05-25T17:02:33.871Z,53.50
2019-05-25T17:05:03.742Z,54.10
2019-05-25T17:07:33.889Z,54.40
2019-05-25T17:10:03.544Z,55.20
2019-05-25T17:12:33.531Z,55.30
2019-05-25T17:15:06.434Z,56.00
2019-05-25T17:17:38.136Z,56.20
2019-05-25T17:20:26.770Z,56.90
2019-05-25T17:22:56.893Z,57.10
2019-05-25T17:25:32.049Z,57.50
2019-05-25T17:28:07.952Z,58.10
2019-05-25T17:30:42.423Z,58.60
2019-05-25T17:33:13.334Z,58.70
2019-05-25T17:35:43.230Z,59.20
2019-05-25T17:38:14.005Z,59.70
2019-05-25T17:40:43.791Z,59.80
2019-05-25T17:43:13.237Z,59.80
2019-05-25T17:45:43.910Z,61.00
2019-05-25T17:48:14.643Z,61.10
2019-05-25T17:50:43.530Z,61.10
2019-05-25T17:53:13.266Z,60.60
2019-05-25T17:55:42.884Z,59.60
2019-05-25T17:58:12.563Z,58.50
2019-05-25T18:00:44.624Z,59.40
2019-05-25T18:03:14.336Z,59.90
2019-05-25T18:05:52.206Z,60.60
2019-05-25T18:08:21.815Z,61.30
2019-05-25T18:10:54.690Z,61.60
2019-05-25T18:13:24.578Z,62.40
2019-05-25T18:15:54.153Z,62.90
2019-05-25T18:18:23.700Z,63.40
2019-05-25T18:20:53.278Z,63.60
2019-05-25T18:23:24.168Z,63.40
2019-05-25T18:25:53.988Z,63.50
2019-05-25T18:28:23.700Z,63.30
2019-05-25T18:30:54.316Z,62.90
2019-05-25T18:33:25.100Z,63.50
2019-05-25T18:35:53.871Z,62.30
2019-05-25T18:38:23.541Z,62.80
2019-05-25T18:40:55.177Z,63.30
2019-05-25T18:43:26.861Z,63.50
2019-05-25T18:45:56.532Z,64.10
2019-05-25T18:48:26.267Z,64.60
2019-05-25T18:50:55.962Z,65.10
2019-05-25T18:53:25.580Z,64.90
2019-05-25T18:55:56.439Z,64.50
2019-05-25T18:58:25.252Z,64.40
2019-05-25T19:00:54.879Z,65.60
2019-05-25T19:03:24.526Z,66.30
2019-05-25T19:05:54.332Z,67.10
2019-05-25T19:08:24.175Z,67.40
2019-05-25T19:10:53.814Z,68.00
2019-05-25T19:13:33.074Z,68.40
2019-05-25T19:16:03.167Z,68.70
2019-05-25T19:18:34.985Z,69.00
2019-05-25T19:21:04.850Z,68.80
2019-05-25T19:23:34.400Z,69.10
2019-05-25T19:26:06.098Z,69.50
2019-05-25T19:28:35.697Z,70.00
2019-05-25T19:31:05.276Z,70.00
2019-05-25T19:33:34.867Z,69.90
2019-05-25T19:36:04.494Z,69.90
2019-05-25T19:38:40.491Z,70.00
2019-05-25T19:41:10.080Z,70.00
2019-05-25T19:43:39.758Z,69.60
2019-05-25T19:46:09.805Z,69.80
2019-05-25T19:48:39.545Z,69.90
2019-05-25T19:51:16.048Z,69.90
2019-05-25T19:53:45.583Z,70.00
2019-05-25T19:56:15.164Z,70.30
2019-05-25T19:58:46.840Z,70.20
2019-05-25T20:01:16.476Z,69.80
2019-05-25T20:03:48.039Z,69.70
2019-05-25T20:06:17.767Z,69.10
2019-05-25T20:08:47.391Z,69.00
2019-05-25T20:11:16.940Z,69.20
2019-05-25T20:13:46.623Z,69.40
2019-05-25T20:16:16.181Z,69.60
2019-05-25T20:18:46.075Z,70.00
2019-05-25T20:21:15.668Z,70.10
2019-05-25T20:24:15.204Z,70.70
2019-05-25T20:26:44.889Z,70.90
2019-05-25T20:29:14.820Z,71.70
2019-05-25T20:31:44.734Z,71.90
2019-05-25T20:34:14.420Z,72.30
2019-05-25T20:36:44.062Z,72.60
2019-05-25T20:39:13.646Z,72.70
2019-05-25T20:42:01.612Z,73.10
2019-05-25T20:44:31.159Z,72.90
2019-05-25T20:47:00.762Z,73.00
2019-05-25T20:49:30.818Z,72.90
2019-05-25T20:52:00.837Z,73.00
2019-05-25T20:54:30.697Z,73.00
2019-05-25T20:57:00.413Z,73.40
2019-05-25T20:59:30.256Z,73.10
2019-05-25T21:02:00.176Z,73.00
2019-05-25T21:04:29.811Z,73.00
2019-05-25T21:07:01.218Z,73.00
2019-05-25T21:09:33.236Z,73.20
2019-05-25T21:12:02.864Z,73.40
2019-05-25T21:14:32.740Z,74.10
2019-05-25T21:17:02.639Z,74.30
2019-05-25T21:19:32.268Z,74.80
2019-05-25T21:22:03.073Z,74.80
2019-05-25T21:24:31.872Z,74.90
2019-05-25T21:27:01.426Z,75.10
2019-05-25T21:29:31.149Z,75.10
2019-05-25T21:32:00.732Z,75.10
2019-05-25T21:34:30.301Z,75.10
2019-05-25T21:36:59.993Z,75.10
2019-05-25T21:39:29.633Z,75.20
2019-05-25T21:41:59.193Z,75.10
2019-05-25T21:44:28.919Z,75.00
2019-05-25T21:46:58.781Z,74.90
2019-05-25T21:49:29.142Z,74.60
2019-05-25T21:51:59.956Z,74.60
2019-05-25T21:54:29.605Z,74.90
2019-05-25T21:56:59.575Z,75.00
2019-05-25T21:59:32.454Z,74.90
2019-05-25T22:02:00.403Z,74.60
2019-05-25T22:04:29.990Z,74.60
2019-05-25T22:06:59.952Z,74.40
2019-05-25T22:09:31.713Z,74.70
2019-05-25T22:12:01.816Z,74.60
2019-05-25T22:14:31.379Z,74.50
2019-05-25T22:17:01.079Z,74.70
2019-05-25T22:19:30.758Z,74.60
2019-05-25T22:22:07.287Z,74.50
2019-05-25T22:24:36.816Z,74.70
2019-05-25T22:27:07.535Z,74.90
2019-05-25T22:29:37.179Z,74.90
2019-05-25T22:32:06.759Z,74.70
2019-05-25T22:34:37.394Z,75.30
2019-05-25T22:37:07.122Z,75.00
2019-05-25T22:39:36.773Z,75.20
2019-05-25T22:42:06.485Z,75.20
2019-05-25T22:44:36.255Z,75.10
2019-05-25T22:47:05.947Z,75.00
2019-05-25T22:49:35.615Z,75.00
2019-05-25T22:52:05.214Z,74.80
2019-05-25T22:54:34.768Z,75.00
2019-05-25T22:57:04.791Z,75.20
2019-05-25T22:59:34.396Z,75.90
2019-05-25T23:02:04.951Z,76.20
2019-05-25T23:04:34.609Z,76.30
2019-05-25T23:07:04.287Z,76.50
2019-05-25T23:09:33.859Z,76.80
2019-05-25T23:12:04.392Z,77.20
2019-05-25T23:14:33.941Z,77.30
2019-05-25T23:17:03.579Z,77.60
2019-05-25T23:19:34.079Z,77.90
2019-05-25T23:22:14.108Z,77.90
2019-05-25T23:24:43.688Z,78.00
2019-05-25T23:27:16.041Z,78.10
2019-05-25T23:29:44.626Z,78.30
2019-05-25T23:32:14.199Z,78.10
2019-05-25T23:34:43.805Z,78.50
2019-05-25T23:37:15.134Z,78.60
2019-05-25T23:39:45.008Z,78.70
2019-05-25T23:42:14.704Z,78.60
2019-05-25T23:44:44.325Z,78.60
2019-05-25T23:47:13.935Z,78.60
2019-05-25T23:49:43.536Z,78.70
2019-05-25T23:52:13.244Z,78.80
2019-05-25T23:54:42.817Z,78.80
2019-05-25T23:57:14.463Z,78.60
2019-05-25T23:59:44.048Z,78.60
